createdAt,value
2016-08-14T00:00:42.708Z,0
2016-08-14T00:01:42.723Z,0
2016-08-14T00:02:42.720Z,0
2016-08-14T00:03:42.734Z,0
2016-08-14T00:04:42.728Z,0
2016-08-14T00:05:42.031Z,0
2016-08-14T00:06:41.335Z,0
2016-08-14T00:07:41.336Z,0
2016-08-14T00:08:43.305Z,0
2016-08-14T00:09:42.055Z,0
2016-08-14T00:10:42.769Z,0
2016-08-14T00:11:43.479Z,0
2016-08-14T00:12:42.076Z,0
2016-08-14T00:13:42.857Z,0
2016-08-14T00:14:42.790Z,0
2016-08-14T00:15:43.514Z,0
2016-08-14T00:16:42.098Z,0
2016-08-14T00:17:42.099Z,0
2016-08-14T00:18:42.817Z,0
2016-08-14T00:19:44.233Z,0
2016-08-14T00:20:42.827Z,0
2016-08-14T00:21:42.833Z,0
2016-08-14T00:22:42.837Z,0
2016-08-14T00:23:42.852Z,0
2016-08-14T00:24:42.849Z,0
2016-08-14T00:25:41.492Z,0
2016-08-14T00:26:42.914Z,0
2016-08-14T00:27:43.574Z,0
2016-08-14T00:28:42.872Z,0
2016-08-14T00:29:42.179Z,0
2016-08-14T00:30:42.979Z,0
2016-08-14T00:31:43.602Z,0
2016-08-14T00:32:42.897Z,0
2016-08-14T00:33:42.213Z,0
2016-08-14T00:34:42.910Z,0
2016-08-14T00:35:42.917Z,0
2016-08-14T00:36:43.683Z,0
2016-08-14T00:37:43.680Z,0
2016-08-14T00:38:43.700Z,0
2016-08-14T00:39:43.654Z,0
2016-08-14T00:40:43.652Z,0
2016-08-14T00:41:43.096Z,0
2016-08-14T00:42:43.667Z,0
2016-08-14T00:43:44.699Z,0
2016-08-14T00:44:42.976Z,0
2016-08-14T00:45:42.272Z,0
2016-08-14T00:46:42.996Z,0
2016-08-14T00:47:42.989Z,0
2016-08-14T00:48:42.291Z,0
2016-08-14T00:49:41.588Z,0
2016-08-14T00:50:42.303Z,0
2016-08-14T00:51:43.721Z,0
2016-08-14T00:52:43.323Z,0
2016-08-14T00:53:42.318Z,0
2016-08-14T00:54:43.788Z,0
2016-08-14T00:55:43.044Z,0
2016-08-14T00:56:42.342Z,0
2016-08-14T00:57:43.811Z,0
2016-08-14T00:58:43.109Z,0
2016-08-14T00:59:42.373Z,0
2016-08-14T01:00:42.363Z,0
2016-08-14T01:01:43.786Z,0
2016-08-14T01:02:43.086Z,0
2016-08-14T01:03:44.084Z,0
2016-08-14T01:04:42.394Z,0
2016-08-14T01:05:43.164Z,0
2016-08-14T01:06:43.809Z,0
2016-08-14T01:07:42.404Z,0
2016-08-14T01:08:43.123Z,0
2016-08-14T01:09:43.832Z,0
2016-08-14T01:10:43.128Z,0
2016-08-14T01:11:43.139Z,0
2016-08-14T01:12:43.141Z,0
2016-08-14T01:13:42.447Z,0
2016-08-14T01:14:44.309Z,0
2016-08-14T01:15:43.870Z,0
2016-08-14T01:16:43.255Z,0
2016-08-14T01:17:43.178Z,0
2016-08-14T01:18:43.184Z,0
2016-08-14T01:19:43.205Z,0
2016-08-14T01:20:43.198Z,0
2016-08-14T01:21:43.194Z,0
2016-08-14T01:22:43.908Z,0
2016-08-14T01:23:42.499Z,0
2016-08-14T01:24:43.208Z,0
2016-08-14T01:25:43.094Z,0
2016-08-14T01:26:43.240Z,0
2016-08-14T01:27:44.593Z,0
2016-08-14T01:28:41.819Z,0
2016-08-14T01:29:43.295Z,0
2016-08-14T01:30:42.539Z,0
2016-08-14T01:31:42.555Z,0
2016-08-14T01:32:43.260Z,0
2016-08-14T01:33:42.561Z,0
2016-08-14T01:34:42.616Z,0
2016-08-14T01:35:43.280Z,0
2016-08-14T01:36:44.597Z,0
2016-08-14T01:37:42.580Z,0
2016-08-14T01:38:44.904Z,0
2016-08-14T01:39:43.300Z,0
2016-08-14T01:40:42.606Z,0
2016-08-14T01:41:44.021Z,0
2016-08-14T01:42:42.615Z,0
2016-08-14T01:43:43.472Z,0
2016-08-14T01:44:44.085Z,0
2016-08-14T01:45:43.336Z,0
2016-08-14T01:46:42.652Z,0
2016-08-14T01:47:44.664Z,0
2016-08-14T01:48:42.648Z,0
2016-08-14T01:49:44.461Z,0
2016-08-14T01:50:43.368Z,0
2016-08-14T01:51:42.668Z,0
2016-08-14T01:52:43.392Z,0
2016-08-14T01:53:43.387Z,0
2016-08-14T01:54:43.394Z,0
2016-08-14T01:55:42.694Z,0
2016-08-14T01:56:42.708Z,0
2016-08-14T01:57:42.751Z,0
2016-08-14T01:58:43.629Z,0
2016-08-14T01:59:44.132Z,0
2016-08-14T02:00:44.896Z,0
2016-08-14T02:01:43.448Z,0
2016-08-14T02:02:44.154Z,0
2016-08-14T02:03:42.036Z,0
2016-08-14T02:04:42.748Z,0
2016-08-14T02:05:43.465Z,0
2016-08-14T02:06:43.467Z,0
2016-08-14T02:07:42.769Z,0
2016-08-14T02:08:44.191Z,0
2016-08-14T02:09:43.491Z,0
2016-08-14T02:10:43.495Z,0
2016-08-14T02:11:42.090Z,0
2016-08-14T02:12:44.761Z,0
2016-08-14T02:13:43.569Z,0
2016-08-14T02:14:43.518Z,0
2016-08-14T02:15:43.531Z,0
2016-08-14T02:16:42.824Z,0
2016-08-14T02:17:42.834Z,0
2016-08-14T02:18:42.841Z,0
2016-08-14T02:19:43.556Z,0
2016-08-14T02:20:43.564Z,0
2016-08-14T02:21:42.877Z,0
2016-08-14T02:22:43.573Z,0
2016-08-14T02:23:43.579Z,0
2016-08-14T02:24:43.582Z,0
2016-08-14T02:25:42.890Z,0
2016-08-14T02:26:43.594Z,0
2016-08-14T02:27:44.306Z,0
2016-08-14T02:28:43.628Z,0
2016-08-14T02:29:42.949Z,0
2016-08-14T02:30:42.911Z,0
2016-08-14T02:31:43.328Z,0
2016-08-14T02:32:44.341Z,0
2016-08-14T02:33:43.636Z,0
2016-08-14T02:34:44.352Z,0
2016-08-14T02:35:44.357Z,0
2016-08-14T02:36:43.000Z,0
2016-08-14T02:37:42.956Z,0
2016-08-14T02:38:43.667Z,0
2016-08-14T02:39:43.727Z,0
2016-08-14T02:40:44.386Z,0
2016-08-14T02:41:44.399Z,0
2016-08-14T02:42:43.632Z,0
2016-08-14T02:43:43.045Z,0
2016-08-14T02:44:45.364Z,0
2016-08-14T02:45:44.463Z,0
2016-08-14T02:46:43.013Z,0
2016-08-14T02:47:42.308Z,0
2016-08-14T02:48:43.727Z,0
2016-08-14T02:49:43.732Z,0
2016-08-14T02:50:43.033Z,0
2016-08-14T02:51:44.459Z,0
2016-08-14T02:52:43.757Z,0
2016-08-14T02:53:44.474Z,0
2016-08-14T02:54:43.062Z,0
2016-08-14T02:55:43.773Z,0
2016-08-14T02:56:43.072Z,0
2016-08-14T02:57:42.369Z,0
2016-08-14T02:58:44.497Z,0
2016-08-14T02:59:43.801Z,0
2016-08-14T03:00:43.096Z,0
2016-08-14T03:01:43.100Z,0
2016-08-14T03:02:43.814Z,0
2016-08-14T03:03:44.528Z,0
2016-08-14T03:04:43.882Z,0
2016-08-14T03:05:44.540Z,0
2016-08-14T03:06:43.840Z,0
2016-08-14T03:07:44.554Z,0
2016-08-14T03:08:43.147Z,0
2016-08-14T03:09:43.862Z,0
2016-08-14T03:10:43.166Z,0
2016-08-14T03:11:44.584Z,0
2016-08-14T03:12:43.880Z,0
2016-08-14T03:13:43.889Z,0
2016-08-14T03:14:43.181Z,0
2016-08-14T03:15:44.086Z,0
2016-08-14T03:16:42.552Z,0
2016-08-14T03:17:43.198Z,0
2016-08-14T03:18:43.917Z,0
2016-08-14T03:19:43.925Z,0
2016-08-14T03:20:43.217Z,0
2016-08-14T03:21:44.659Z,0
2016-08-14T03:22:43.233Z,0
2016-08-14T03:23:43.236Z,0
2016-08-14T03:24:43.979Z,0
2016-08-14T03:25:43.972Z,0
2016-08-14T03:26:44.165Z,0
2016-08-14T03:27:43.968Z,0
2016-08-14T03:28:43.275Z,0
2016-08-14T03:29:44.051Z,0
2016-08-14T03:30:43.285Z,0
2016-08-14T03:31:43.288Z,0
2016-08-14T03:32:43.295Z,0
2016-08-14T03:33:44.003Z,0
2016-08-14T03:34:44.012Z,0
2016-08-14T03:35:44.025Z,0
2016-08-14T03:36:44.022Z,0
2016-08-14T03:37:44.937Z,0
2016-08-14T03:38:44.758Z,0
2016-08-14T03:39:44.765Z,0
2016-08-14T03:40:44.107Z,0
2016-08-14T03:41:43.347Z,0
2016-08-14T03:42:43.418Z,0
2016-08-14T03:43:42.706Z,0
2016-08-14T03:44:43.367Z,0
2016-08-14T03:45:43.474Z,0
2016-08-14T03:46:44.136Z,0
2016-08-14T03:47:43.388Z,0
2016-08-14T03:48:44.505Z,0
2016-08-14T03:49:44.100Z,0
2016-08-14T03:50:43.459Z,0
2016-08-14T03:51:44.116Z,0
2016-08-14T03:52:43.434Z,0
2016-08-14T03:53:43.434Z,0
2016-08-14T03:54:44.844Z,0
2016-08-14T03:55:43.481Z,0
2016-08-14T03:56:44.854Z,0
2016-08-14T03:57:44.153Z,4
2016-08-14T03:58:44.606Z,0
2016-08-14T03:59:42.756Z,0
2016-08-14T04:00:44.172Z,4
2016-08-14T04:01:44.573Z,4
2016-08-14T04:02:43.485Z,0
2016-08-14T04:03:43.489Z,0
2016-08-14T04:04:44.917Z,4
2016-08-14T04:05:44.199Z,4
2016-08-14T04:06:43.502Z,4
2016-08-14T04:07:44.221Z,4
2016-08-14T04:08:43.513Z,8
2016-08-14T04:09:43.527Z,4
2016-08-14T04:10:45.940Z,4
2016-08-14T04:11:43.540Z,8
2016-08-14T04:12:44.796Z,8
2016-08-14T04:13:43.599Z,8
2016-08-14T04:14:44.963Z,8
2016-08-14T04:15:44.970Z,8
2016-08-14T04:16:44.320Z,12
2016-08-14T04:17:43.580Z,12
2016-08-14T04:18:44.991Z,16
2016-08-14T04:19:44.287Z,16
2016-08-14T04:20:44.292Z,20
2016-08-14T04:21:43.039Z,20
2016-08-14T04:22:45.018Z,24
2016-08-14T04:23:44.858Z,24
2016-08-14T04:24:45.029Z,24
2016-08-14T04:25:44.321Z,28
2016-08-14T04:26:44.336Z,28
2016-08-14T04:27:43.633Z,28
2016-08-14T04:28:44.348Z,32
2016-08-14T04:29:43.648Z,36
2016-08-14T04:30:44.357Z,36
2016-08-14T04:31:45.115Z,44
2016-08-14T04:32:43.401Z,52
2016-08-14T04:33:43.664Z,60
2016-08-14T04:34:45.976Z,80
2016-08-14T04:35:45.090Z,104
2016-08-14T04:36:43.683Z,132
2016-08-14T04:37:44.392Z,152
2016-08-14T04:38:44.452Z,180
2016-08-14T04:39:43.001Z,200
2016-08-14T04:40:43.713Z,212
2016-08-14T04:41:43.004Z,220
2016-08-14T04:42:45.135Z,220
2016-08-14T04:43:43.727Z,216
2016-08-14T04:44:43.736Z,212
2016-08-14T04:45:43.786Z,208
2016-08-14T04:46:43.792Z,212
2016-08-14T04:47:44.455Z,196
2016-08-14T04:48:44.463Z,188
2016-08-14T04:49:45.188Z,204
2016-08-14T04:50:44.523Z,236
2016-08-14T04:51:44.486Z,272
2016-08-14T04:52:44.493Z,304
2016-08-14T04:53:44.496Z,336
2016-08-14T04:54:43.994Z,396
2016-08-14T04:55:45.210Z,448
2016-08-14T04:56:45.893Z,476
2016-08-14T04:57:43.814Z,484
2016-08-14T04:58:44.573Z,484
2016-08-14T04:59:43.881Z,440
2016-08-14T05:00:43.832Z,396
2016-08-14T05:01:43.841Z,332
2016-08-14T05:02:44.543Z,284
2016-08-14T05:03:44.556Z,284
2016-08-14T05:04:44.567Z,320
2016-08-14T05:05:45.774Z,380
2016-08-14T05:06:44.577Z,416
2016-08-14T05:07:44.731Z,448
2016-08-14T05:08:43.897Z,460
2016-08-14T05:09:44.592Z,480
2016-08-14T05:10:43.887Z,516
2016-08-14T05:11:44.605Z,572
2016-08-14T05:12:43.903Z,672
2016-08-14T05:13:43.926Z,828
2016-08-14T05:14:43.916Z,812
2016-08-14T05:15:44.636Z,488
2016-08-14T05:16:44.728Z,368
2016-08-14T05:17:45.351Z,280
2016-08-14T05:18:44.500Z,220
2016-08-14T05:19:44.705Z,200
2016-08-14T05:20:43.954Z,196
2016-08-14T05:21:45.382Z,192
2016-08-14T05:22:44.672Z,184
2016-08-14T05:23:44.731Z,176
2016-08-14T05:24:45.404Z,176
2016-08-14T05:25:43.988Z,172
2016-08-14T05:26:44.701Z,168
2016-08-14T05:27:45.457Z,184
2016-08-14T05:28:44.011Z,208
2016-08-14T05:29:44.720Z,232
2016-08-14T05:30:44.025Z,244
2016-08-14T05:31:44.733Z,248
2016-08-14T05:32:43.322Z,240
2016-08-14T05:33:44.757Z,228
2016-08-14T05:34:44.143Z,224
2016-08-14T05:35:44.054Z,208
2016-08-14T05:36:44.773Z,196
2016-08-14T05:37:45.471Z,184
2016-08-14T05:38:45.683Z,180
2016-08-14T05:39:45.487Z,180
2016-08-14T05:40:45.496Z,192
2016-08-14T05:41:45.513Z,228
2016-08-14T05:42:44.797Z,264
2016-08-14T05:43:44.156Z,248
2016-08-14T05:44:44.817Z,232
2016-08-14T05:45:44.824Z,232
2016-08-14T05:46:44.821Z,244
2016-08-14T05:47:44.178Z,252
2016-08-14T05:48:44.134Z,268
2016-08-14T05:49:46.501Z,288
2016-08-14T05:50:45.558Z,308
2016-08-14T05:51:44.841Z,316
2016-08-14T05:52:44.200Z,320
2016-08-14T05:53:44.204Z,332
2016-08-14T05:54:44.216Z,348
2016-08-14T05:55:45.583Z,360
2016-08-14T05:56:45.593Z,364
2016-08-14T05:57:44.890Z,368
2016-08-14T05:58:45.657Z,396
2016-08-14T05:59:45.608Z,444
2016-08-14T06:00:45.967Z,436
2016-08-14T06:01:44.928Z,448
2016-08-14T06:02:44.957Z,460
2016-08-14T06:03:45.636Z,504
2016-08-14T06:04:45.640Z,536
2016-08-14T06:05:44.234Z,584
2016-08-14T06:06:44.255Z,604
2016-08-14T06:07:44.959Z,568
2016-08-14T06:08:44.959Z,548
2016-08-14T06:09:45.674Z,548
2016-08-14T06:10:44.264Z,552
2016-08-14T06:11:45.428Z,516
2016-08-14T06:12:44.277Z,484
2016-08-14T06:13:45.638Z,456
2016-08-14T06:14:44.994Z,468
2016-08-14T06:15:43.592Z,544
2016-08-14T06:16:44.304Z,584
2016-08-14T06:17:44.309Z,612
2016-08-14T06:18:45.025Z,628
2016-08-14T06:19:45.029Z,644
2016-08-14T06:20:44.326Z,608
2016-08-14T06:21:43.626Z,568
2016-08-14T06:22:46.297Z,516
2016-08-14T06:23:45.074Z,496
2016-08-14T06:24:45.267Z,480
2016-08-14T06:25:45.066Z,476
2016-08-14T06:26:45.781Z,460
2016-08-14T06:27:43.669Z,448
2016-08-14T06:28:45.792Z,460
2016-08-14T06:29:44.435Z,484
2016-08-14T06:30:45.825Z,480
2016-08-14T06:31:45.104Z,488
2016-08-14T06:32:44.407Z,488
2016-08-14T06:33:45.917Z,500
2016-08-14T06:34:45.185Z,528
2016-08-14T06:35:45.587Z,544
2016-08-14T06:36:45.131Z,544
2016-08-14T06:37:44.431Z,532
2016-08-14T06:38:45.862Z,536
2016-08-14T06:39:45.149Z,536
2016-08-14T06:40:45.863Z,528
2016-08-14T06:41:43.753Z,516
2016-08-14T06:42:45.874Z,508
2016-08-14T06:43:45.175Z,504
2016-08-14T06:44:46.215Z,504
2016-08-14T06:45:44.490Z,504
2016-08-14T06:46:45.986Z,492
2016-08-14T06:47:45.201Z,488
2016-08-14T06:48:44.500Z,500
2016-08-14T06:49:44.504Z,504
2016-08-14T06:50:45.923Z,492
2016-08-14T06:51:45.279Z,480
2016-08-14T06:52:45.939Z,472
2016-08-14T06:53:45.490Z,488
2016-08-14T06:54:46.291Z,508
2016-08-14T06:55:44.540Z,528
2016-08-14T06:56:43.845Z,544
2016-08-14T06:57:46.355Z,544
2016-08-14T06:58:45.973Z,560
2016-08-14T06:59:44.568Z,584
2016-08-14T07:00:46.038Z,624
2016-08-14T07:01:45.284Z,624
2016-08-14T07:02:44.587Z,608
2016-08-14T07:03:45.297Z,588
2016-08-14T07:04:46.059Z,564
2016-08-14T07:05:46.066Z,540
2016-08-14T07:06:45.107Z,520
2016-08-14T07:07:46.028Z,508
2016-08-14T07:08:43.912Z,500
2016-08-14T07:09:46.038Z,512
2016-08-14T07:10:45.339Z,544
2016-08-14T07:11:44.691Z,572
2016-08-14T07:12:43.936Z,572
2016-08-14T07:13:45.406Z,556
2016-08-14T07:14:46.080Z,552
2016-08-14T07:15:44.663Z,532
2016-08-14T07:16:44.719Z,524
2016-08-14T07:17:45.838Z,492
2016-08-14T07:18:44.691Z,488
2016-08-14T07:19:45.394Z,512
2016-08-14T07:20:46.106Z,524
2016-08-14T07:21:45.408Z,520
2016-08-14T07:22:44.706Z,516
2016-08-14T07:23:45.422Z,516
2016-08-14T07:24:45.427Z,532
2016-08-14T07:25:44.724Z,576
2016-08-14T07:26:46.886Z,632
2016-08-14T07:27:45.442Z,704
2016-08-14T07:28:46.053Z,796
2016-08-14T07:29:45.457Z,852
2016-08-14T07:30:45.659Z,864
2016-08-14T07:31:45.466Z,852
2016-08-14T07:32:44.768Z,876
2016-08-14T07:33:46.187Z,928
2016-08-14T07:34:46.202Z,1016
2016-08-14T07:35:45.856Z,1072
2016-08-14T07:36:44.793Z,1040
2016-08-14T07:37:44.100Z,972
2016-08-14T07:38:44.802Z,824
2016-08-14T07:39:47.024Z,740
2016-08-14T07:40:44.815Z,716
2016-08-14T07:41:45.335Z,752
2016-08-14T07:42:44.829Z,896
2016-08-14T07:43:44.886Z,1056
2016-08-14T07:44:46.258Z,1168
2016-08-14T07:45:45.552Z,1212
2016-08-14T07:46:45.559Z,1280
2016-08-14T07:47:44.167Z,1296
2016-08-14T07:48:45.570Z,1292
2016-08-14T07:49:45.596Z,1232
2016-08-14T07:50:46.632Z,1124
2016-08-14T07:51:46.295Z,964
2016-08-14T07:52:45.598Z,880
2016-08-14T07:53:45.648Z,868
2016-08-14T07:54:44.909Z,868
2016-08-14T07:55:45.611Z,876
2016-08-14T07:56:44.909Z,884
2016-08-14T07:57:44.917Z,868
2016-08-14T07:58:45.627Z,836
2016-08-14T07:59:45.631Z,828
2016-08-14T08:00:46.403Z,864
2016-08-14T08:01:44.955Z,924
2016-08-14T08:02:46.366Z,948
2016-08-14T08:03:45.917Z,964
2016-08-14T08:04:46.366Z,920
2016-08-14T08:05:44.304Z,828
2016-08-14T08:06:46.435Z,788
2016-08-14T08:07:44.277Z,784
2016-08-14T08:08:45.687Z,796
2016-08-14T08:09:46.395Z,840
2016-08-14T08:10:45.699Z,832
2016-08-14T08:11:46.407Z,864
2016-08-14T08:12:45.717Z,876
2016-08-14T08:13:45.717Z,920
2016-08-14T08:14:47.170Z,892
2016-08-14T08:15:46.423Z,888
2016-08-14T08:16:45.019Z,976
2016-08-14T08:17:45.929Z,1096
2016-08-14T08:18:45.083Z,1144
2016-08-14T08:19:45.043Z,1260
2016-08-14T08:20:46.452Z,1400
2016-08-14T08:21:46.100Z,1476
2016-08-14T08:22:45.758Z,1528
2016-08-14T08:23:45.772Z,1540
2016-08-14T08:24:45.065Z,1412
2016-08-14T08:25:45.068Z,1328
2016-08-14T08:26:46.493Z,1388
2016-08-14T08:27:45.792Z,1516
2016-08-14T08:28:45.792Z,1528
2016-08-14T08:29:44.386Z,1396
2016-08-14T08:30:45.804Z,1368
2016-08-14T08:31:45.862Z,1308
2016-08-14T08:32:45.113Z,1256
2016-08-14T08:33:46.531Z,1168
2016-08-14T08:34:45.377Z,1068
2016-08-14T08:35:45.134Z,972
2016-08-14T08:36:45.893Z,908
2016-08-14T08:37:45.848Z,908
2016-08-14T08:38:45.863Z,892
2016-08-14T08:39:45.865Z,900
2016-08-14T08:40:44.858Z,956
2016-08-14T08:41:45.170Z,1060
2016-08-14T08:42:45.170Z,1168
2016-08-14T08:43:47.393Z,1308
2016-08-14T08:44:45.893Z,1532
2016-08-14T08:45:45.643Z,1740
2016-08-14T08:46:45.902Z,1912
2016-08-14T08:47:47.353Z,1828
2016-08-14T08:48:46.619Z,1676
2016-08-14T08:49:45.214Z,1588
2016-08-14T08:50:46.643Z,1508
2016-08-14T08:51:45.930Z,1496
2016-08-14T08:52:45.933Z,1560
2016-08-14T08:53:45.998Z,1688
2016-08-14T08:54:47.048Z,1728
2016-08-14T08:55:45.948Z,1772
2016-08-14T08:56:46.805Z,1816
2016-08-14T08:57:45.961Z,1828
2016-08-14T08:58:45.671Z,1836
2016-08-14T08:59:45.986Z,1840
2016-08-14T09:00:45.984Z,1788
2016-08-14T09:01:45.984Z,1624
2016-08-14T09:02:46.061Z,1700
2016-08-14T09:03:46.703Z,1796
2016-08-14T09:04:46.058Z,1932
2016-08-14T09:05:47.333Z,1936
2016-08-14T09:06:45.313Z,2068
2016-08-14T09:07:47.121Z,2140
2016-08-14T09:08:46.030Z,2236
2016-08-14T09:09:46.131Z,2324
2016-08-14T09:10:46.747Z,2384
2016-08-14T09:11:46.103Z,2360
2016-08-14T09:12:46.758Z,2284
2016-08-14T09:13:46.810Z,2160
2016-08-14T09:14:45.358Z,2016
2016-08-14T09:15:46.070Z,1932
2016-08-14T09:16:46.074Z,1964
2016-08-14T09:17:46.788Z,2488
2016-08-14T09:18:47.659Z,2784
2016-08-14T09:19:46.809Z,2980
2016-08-14T09:20:46.648Z,2876
2016-08-14T09:21:46.110Z,2664
2016-08-14T09:22:45.412Z,2396
2016-08-14T09:23:45.412Z,2272
2016-08-14T09:24:46.883Z,2276
2016-08-14T09:25:46.838Z,2360
2016-08-14T09:26:45.433Z,2548
2016-08-14T09:27:46.144Z,2764
2016-08-14T09:28:46.858Z,2900
2016-08-14T09:29:45.458Z,2896
2016-08-14T09:30:46.164Z,2720
2016-08-14T09:31:46.823Z,3068
2016-08-14T09:32:45.472Z,2636
2016-08-14T09:33:46.180Z,2676
2016-08-14T09:34:46.187Z,3176
2016-08-14T09:35:46.200Z,3132
2016-08-14T09:36:45.506Z,3232
2016-08-14T09:37:46.210Z,2840
2016-08-14T09:38:46.625Z,2632
2016-08-14T09:39:46.225Z,2580
2016-08-14T09:40:46.232Z,2736
2016-08-14T09:41:46.235Z,2496
2016-08-14T09:42:47.354Z,2580
2016-08-14T09:43:45.597Z,2572
2016-08-14T09:44:45.558Z,2376
2016-08-14T09:45:45.556Z,2056
2016-08-14T09:46:46.273Z,2156
2016-08-14T09:47:46.994Z,2080
2016-08-14T09:48:45.576Z,2600
2016-08-14T09:49:47.598Z,2468
2016-08-14T09:50:46.298Z,2972
2016-08-14T09:51:45.996Z,2916
2016-08-14T09:52:46.318Z,2784
2016-08-14T09:53:47.876Z,2440
2016-08-14T09:54:46.324Z,2336
2016-08-14T09:55:46.334Z,2260
2016-08-14T09:56:46.340Z,2192
2016-08-14T09:57:47.101Z,2100
2016-08-14T09:58:46.357Z,2068
2016-08-14T09:59:46.357Z,2080
2016-08-14T10:00:48.125Z,2132
2016-08-14T10:01:45.665Z,2084
2016-08-14T10:02:47.132Z,1936
2016-08-14T10:03:45.681Z,1804
2016-08-14T10:04:44.985Z,1740
2016-08-14T10:05:45.035Z,1768
2016-08-14T10:06:45.712Z,1884
2016-08-14T10:07:45.704Z,2016
2016-08-14T10:08:47.127Z,2084
2016-08-14T10:09:46.428Z,2088
2016-08-14T10:10:45.740Z,2292
2016-08-14T10:11:48.126Z,2348
2016-08-14T10:12:45.084Z,2628
2016-08-14T10:13:47.200Z,2848
2016-08-14T10:14:47.170Z,2384
2016-08-14T10:15:45.811Z,2388
2016-08-14T10:16:45.766Z,2304
2016-08-14T10:17:45.771Z,2260
2016-08-14T10:18:46.485Z,2588
2016-08-14T10:19:46.514Z,2064
2016-08-14T10:20:46.500Z,2072
2016-08-14T10:21:45.803Z,2384
2016-08-14T10:22:45.809Z,2244
2016-08-14T10:23:46.520Z,2280
2016-08-14T10:24:47.527Z,1780
2016-08-14T10:25:46.542Z,1604
2016-08-14T10:26:47.301Z,1432
2016-08-14T10:27:46.546Z,1312
2016-08-14T10:28:45.850Z,1276
2016-08-14T10:29:45.917Z,1288
2016-08-14T10:30:46.568Z,1368
2016-08-14T10:31:46.587Z,1456
2016-08-14T10:32:46.584Z,1468
2016-08-14T10:33:46.639Z,1480
2016-08-14T10:34:45.895Z,1484
2016-08-14T10:35:46.192Z,1488
2016-08-14T10:36:45.898Z,1536
2016-08-14T10:37:46.617Z,1608
2016-08-14T10:38:46.621Z,1620
2016-08-14T10:39:47.334Z,1664
2016-08-14T10:40:47.342Z,1752
2016-08-14T10:41:45.989Z,1816
2016-08-14T10:42:46.654Z,1816
2016-08-14T10:43:46.654Z,1832
2016-08-14T10:44:46.951Z,1852
2016-08-14T10:45:46.666Z,2092
2016-08-14T10:46:47.395Z,1920
2016-08-14T10:47:45.973Z,1784
2016-08-14T10:48:47.398Z,1752
2016-08-14T10:49:45.997Z,1752
2016-08-14T10:50:46.715Z,1768
2016-08-14T10:51:46.731Z,1704
2016-08-14T10:52:46.010Z,1636
2016-08-14T10:53:46.718Z,1560
2016-08-14T10:54:47.444Z,1372
2016-08-14T10:55:45.322Z,1252
2016-08-14T10:56:46.034Z,1152
2016-08-14T10:57:46.443Z,1436
2016-08-14T10:58:46.057Z,1548
2016-08-14T10:59:46.779Z,1580
2016-08-14T11:00:46.058Z,1288
2016-08-14T11:01:47.479Z,1220
2016-08-14T11:02:46.082Z,1192
2016-08-14T11:03:47.559Z,1236
2016-08-14T11:04:46.794Z,1184
2016-08-14T11:05:45.390Z,1140
2016-08-14T11:06:45.397Z,1132
2016-08-14T11:07:46.826Z,1188
2016-08-14T11:08:48.079Z,1268
2016-08-14T11:09:45.414Z,1320
2016-08-14T11:10:46.839Z,1368
2016-08-14T11:11:47.597Z,1424
2016-08-14T11:12:46.848Z,1436
2016-08-14T11:13:45.488Z,1392
2016-08-14T11:14:47.567Z,1316
2016-08-14T11:15:46.212Z,1248
2016-08-14T11:16:46.171Z,1264
2016-08-14T11:17:48.287Z,1488
2016-08-14T11:18:46.177Z,1444
2016-08-14T11:19:48.501Z,1572
2016-08-14T11:20:45.485Z,1908
2016-08-14T11:21:46.903Z,1908
2016-08-14T11:22:46.204Z,2008
2016-08-14T11:23:46.916Z,1736
2016-08-14T11:24:46.925Z,1592
2016-08-14T11:25:46.929Z,1644
2016-08-14T11:26:46.238Z,1636
2016-08-14T11:27:45.535Z,1620
2016-08-14T11:28:48.551Z,1632
2016-08-14T11:29:46.957Z,1632
2016-08-14T11:30:47.501Z,1652
2016-08-14T11:31:46.264Z,1648
2016-08-14T11:32:47.684Z,1612
2016-08-14T11:33:46.278Z,1564
2016-08-14T11:34:46.358Z,1516
2016-08-14T11:35:47.048Z,1496
2016-08-14T11:36:47.002Z,1444
2016-08-14T11:37:47.015Z,1384
2016-08-14T11:38:47.032Z,1320
2016-08-14T11:39:48.797Z,1256
2016-08-14T11:40:46.340Z,1216
2016-08-14T11:41:48.433Z,1200
2016-08-14T11:42:47.094Z,1172
2016-08-14T11:43:47.759Z,1124
2016-08-14T11:44:46.378Z,1088
2016-08-14T11:45:47.070Z,1088
2016-08-14T11:46:47.069Z,1104
2016-08-14T11:47:47.079Z,1180
2016-08-14T11:48:46.380Z,1260
2016-08-14T11:49:45.673Z,1284
2016-08-14T11:50:47.202Z,1212
2016-08-14T11:51:47.105Z,1116
2016-08-14T11:52:46.409Z,1044
2016-08-14T11:53:47.123Z,1016
2016-08-14T11:54:47.135Z,1012
2016-08-14T11:55:46.428Z,1040
2016-08-14T11:56:47.847Z,1100
2016-08-14T11:57:47.858Z,1168
2016-08-14T11:58:47.862Z,1184
2016-08-14T11:59:46.448Z,1192
2016-08-14T12:00:47.167Z,1180
2016-08-14T12:01:46.917Z,1160
2016-08-14T12:02:47.187Z,1136
2016-08-14T12:03:46.624Z,1140
2016-08-14T12:04:47.900Z,1148
2016-08-14T12:05:47.200Z,1124
2016-08-14T12:06:46.496Z,1100
2016-08-14T12:07:47.934Z,1092
2016-08-14T12:08:46.513Z,1096
2016-08-14T12:09:46.527Z,1124
2016-08-14T12:10:47.233Z,1164
2016-08-14T12:11:47.950Z,1184
2016-08-14T12:12:48.907Z,1196
2016-08-14T12:13:47.306Z,1200
2016-08-14T12:14:47.255Z,1208
2016-08-14T12:15:46.618Z,1340
2016-08-14T12:16:46.568Z,1384
2016-08-14T12:17:46.572Z,1328
2016-08-14T12:18:47.336Z,1340
2016-08-14T12:19:47.342Z,1304
2016-08-14T12:20:46.598Z,1268
2016-08-14T12:21:45.963Z,1312
2016-08-14T12:22:46.607Z,1332
2016-08-14T12:23:48.857Z,1376
2016-08-14T12:24:48.035Z,1256
2016-08-14T12:25:47.876Z,1196
2016-08-14T12:26:47.339Z,1228
2016-08-14T12:27:47.349Z,1296
2016-08-14T12:28:46.648Z,1528
2016-08-14T12:29:47.359Z,1536
2016-08-14T12:30:47.368Z,1512
2016-08-14T12:31:48.130Z,1520
2016-08-14T12:32:47.432Z,1548
2016-08-14T12:33:46.735Z,1636
2016-08-14T12:34:47.401Z,1664
2016-08-14T12:35:46.745Z,1680
2016-08-14T12:36:49.028Z,1752
2016-08-14T12:37:48.122Z,1524
2016-08-14T12:38:46.720Z,1520
2016-08-14T12:39:46.020Z,1576
2016-08-14T12:40:47.485Z,1780
2016-08-14T12:41:46.736Z,1724
2016-08-14T12:42:46.751Z,1664
2016-08-14T12:43:48.464Z,1640
2016-08-14T12:44:47.463Z,1520
2016-08-14T12:45:48.902Z,1532
2016-08-14T12:46:47.503Z,1524
2016-08-14T12:47:48.777Z,1584
2016-08-14T12:48:47.490Z,1600
2016-08-14T12:49:46.802Z,1660
2016-08-14T12:50:47.504Z,1560
2016-08-14T12:51:47.510Z,1484
2016-08-14T12:52:47.519Z,1452
2016-08-14T12:53:46.818Z,1408
2016-08-14T12:54:50.847Z,1400
2016-08-14T12:55:46.127Z,1440
2016-08-14T12:56:47.544Z,1488
2016-08-14T12:57:48.262Z,1500
2016-08-14T12:58:47.564Z,1508
2016-08-14T12:59:47.568Z,1476
2016-08-14T13:00:47.581Z,1452
2016-08-14T13:01:46.169Z,1420
2016-08-14T13:02:46.880Z,1412
2016-08-14T13:03:47.615Z,1404
2016-08-14T13:04:47.606Z,1428
2016-08-14T13:05:46.900Z,1436
2016-08-14T13:06:46.919Z,1472
2016-08-14T13:07:48.669Z,1500
2016-08-14T13:08:47.637Z,1536
2016-08-14T13:09:47.644Z,1592
2016-08-14T13:10:47.649Z,1576
2016-08-14T13:11:46.231Z,1608
2016-08-14T13:12:47.660Z,1680
2016-08-14T13:13:48.421Z,1528
2016-08-14T13:14:46.976Z,1556
2016-08-14T13:15:47.680Z,1508
2016-08-14T13:16:46.979Z,1608
2016-08-14T13:17:47.696Z,1608
2016-08-14T13:18:49.357Z,1512
2016-08-14T13:19:47.706Z,1500
2016-08-14T13:20:47.652Z,1452
2016-08-14T13:21:47.719Z,1408
2016-08-14T13:22:47.777Z,1372
2016-08-14T13:23:47.031Z,1348
2016-08-14T13:24:47.037Z,1320
2016-08-14T13:25:47.039Z,1256
2016-08-14T13:26:47.753Z,1280
2016-08-14T13:27:48.518Z,1244
2016-08-14T13:28:47.767Z,1240
2016-08-14T13:29:47.779Z,1304
2016-08-14T13:30:48.491Z,1288
2016-08-14T13:31:46.372Z,1284
2016-08-14T13:32:48.502Z,1204
2016-08-14T13:33:48.555Z,1216
2016-08-14T13:34:48.590Z,1100
2016-08-14T13:35:47.159Z,1068
2016-08-14T13:36:47.116Z,1032
2016-08-14T13:37:47.830Z,1028
2016-08-14T13:38:47.982Z,1040
2016-08-14T13:39:47.137Z,1064
2016-08-14T13:40:47.862Z,1096
2016-08-14T13:41:47.865Z,1092
2016-08-14T13:42:49.729Z,1080
2016-08-14T13:43:46.454Z,1076
2016-08-14T13:44:48.607Z,1128
2016-08-14T13:45:47.173Z,1112
2016-08-14T13:46:47.189Z,1116
2016-08-14T13:47:47.898Z,1124
2016-08-14T13:48:47.901Z,1152
2016-08-14T13:49:49.269Z,1212
2016-08-14T13:50:48.633Z,1216
2016-08-14T13:51:49.086Z,1280
2016-08-14T13:52:48.640Z,1264